Time;durP1;ratioP1;P1;durP2;ratioP2;P2;SDS_P1;SDS_P2;PMS_P1;PMS_P2;Temp;Humidity;BMP_temperature;BMP_pressure;BME280_temperature;BME280_humidity;BME280_pressure;Samples;Min_cycle;Max_cycle;Signal;HPM_P1;HPM_P2
2021/03/14 00:00:35;;;;;;;43.42;28.92;;;;;;;;;;6190404;28;20746;-69
2021/03/14 00:03:37;;;;;;;46.30;28.20;;;;;;;;;;6185816;28;20147;-70
2021/03/14 00:06:38;;;;;;;43.95;27.92;;;;;;;;;;6173536;28;20094;-69
2021/03/14 00:09:39;;;;;;;44.88;28.80;;;;;;;;;;6175417;28;20047;-69
2021/03/14 00:12:40;;;;;;;41.45;27.85;;;;;;;;;;6171753;28;20251;-70
2021/03/14 00:15:41;;;;;;;36.88;26.73;;;;;;;;;;6169657;28;20133;-70
2021/03/14 00:18:43;;;;;;;43.30;27.80;;;;;;;;;;6176530;28;20074;-71
2021/03/14 00:21:44;;;;;;;39.50;27.65;;;;;;;;;;6160223;28;20051;-70
2021/03/14 00:24:45;;;;;;;42.40;27.85;;;;;;;;;;6163973;28;20137;-71
2021/03/14 00:27:46;;;;;;;43.20;27.55;;;;;;;;;;6168909;28;20050;-71
2021/03/14 00:30:48;;;;;;;40.63;27.63;;;;;;;;;;6164297;28;20125;-71
2021/03/14 00:33:50;;;;;;;39.53;27.15;;;;;;;;;;6167508;28;20078;-72
2021/03/14 00:36:51;;;;;;;40.67;27.88;;;;;;;;;;6161364;28;20075;-73
2021/03/14 00:39:52;;;;;;;42.88;26.95;;;;;;;;;;6166099;28;20145;-71
2021/03/14 00:42:54;;;;;;;42.65;26.65;;;;;;;;;;6171603;28;20162;-74
2021/03/14 00:45:55;;;;;;;42.92;25.85;;;;;;;;;;6168382;28;20146;-72
2021/03/14 00:48:57;;;;;;;40.28;25.85;;;;;;;;;;6164936;28;20046;-72
2021/03/14 00:51:58;;;;;;;38.13;26.63;;;;;;;;;;6166411;28;20141;-71
2021/03/14 00:54:59;;;;;;;35.72;25.08;;;;;;;;;;6169954;28;20474;-71
2021/03/14 00:58:01;;;;;;;37.78;25.70;;;;;;;;;;6169030;28;20043;-71
2021/03/14 01:01:02;;;;;;;41.30;25.63;;;;;;;;;;6159515;28;20126;-71
2021/03/14 01:04:05;;;;;;;38.70;25.48;;;;;;;;;;6166629;28;20156;-71
2021/03/14 01:07:06;;;;;;;36.63;23.17;;;;;;;;;;6182251;28;20549;-71
2021/03/14 01:10:08;;;;;;;37.58;26.13;;;;;;;;;;6188137;28;20145;-71
2021/03/14 01:13:10;;;;;;;39.67;24.30;;;;;;;;;;6183325;28;20126;-71
2021/03/14 01:16:11;;;;;;;38.85;24.85;;;;;;;;;;6180843;28;20134;-72
2021/03/14 01:19:12;;;;;;;46.08;26.15;;;;;;;;;;6185023;28;20324;-71
2021/03/14 01:22:13;;;;;;;41.65;25.02;;;;;;;;;;6184384;28;20084;-71
2021/03/14 01:25:15;;;;;;;38.88;24.92;;;;;;;;;;6182075;28;20158;-73
2021/03/14 01:28:16;;;;;;;55.58;25.23;;;;;;;;;;6185887;28;20062;-71
2021/03/14 01:31:17;;;;;;;39.72;22.05;;;;;;;;;;6184377;28;20187;-71
2021/03/14 01:34:19;;;;;;;39.67;22.55;;;;;;;;;;6188956;28;20481;-71
2021/03/14 01:37:20;;;;;;;36.42;20.95;;;;;;;;;;6181004;28;20054;-73
2021/03/14 01:40:23;;;;;;;37.38;20.77;;;;;;;;;;6183189;28;20161;-69
2021/03/14 01:43:24;;;;;;;38.60;19.13;;;;;;;;;;6186577;28;20086;-70
2021/03/14 01:46:26;;;;;;;35.47;20.17;;;;;;;;;;6195751;28;20470;-73
2021/03/14 01:49:28;;;;;;;30.00;18.95;;;;;;;;;;6195478;28;20133;-72
2021/03/14 01:52:29;;;;;;;36.03;19.77;;;;;;;;;;6190549;28;20070;-71
2021/03/14 01:55:30;;;;;;;32.20;19.02;;;;;;;;;;6195796;28;20050;-69
2021/03/14 01:58:33;;;;;;;34.05;19.75;;;;;;;;;;6203456;28;20261;-70
2021/03/14 02:01:34;;;;;;;32.22;19.38;;;;;;;;;;6483413;23;20525;-72
2021/03/14 02:04:36;;;;;;;30.88;17.95;;;;;;;;;;6230284;28;20061;-72
2021/03/14 02:07:39;;;;;;;34.67;18.50;;;;;;;;;;6231516;28;20441;-74
2021/03/14 02:10:40;;;;;;;26.73;17.45;;;;;;;;;;6230124;28;20457;-72
2021/03/14 02:13:43;;;;;;;29.40;16.77;;;;;;;;;;6230573;28;20169;-72
2021/03/14 02:16:44;;;;;;;31.35;18.65;;;;;;;;;;6235663;28;20064;-71
2021/03/14 02:19:52;;;;;;;28.38;18.75;;;;;;;;;;6238805;28;20128;-70
2021/03/14 02:23:08;;;;;;;29.52;17.92;;;;;;;;;;6237319;28;20057;-71
2021/03/14 02:26:12;;;;;;;26.42;14.70;;;;;;;;;;6241892;28;20427;-71
2021/03/14 02:29:16;;;;;;;22.35;13.10;;;;;;;;;;6238498;28;20052;-71
2021/03/14 02:32:20;;;;;;;24.48;14.38;;;;;;;;;;6241879;28;20132;-72
2021/03/14 02:35:21;;;;;;;29.80;15.80;;;;;;;;;;6237291;28;20079;-73
2021/03/14 02:38:23;;;;;;;24.10;13.77;;;;;;;;;;6244072;28;20080;-72
2021/03/14 02:41:24;;;;;;;20.77;12.55;;;;;;;;;;6235729;28;20115;-72
2021/03/14 02:44:28;;;;;;;22.42;12.38;;;;;;;;;;6238676;28;20041;-72
2021/03/14 02:47:29;;;;;;;;;;;;;;;;;;6230171;28;20049;-71
2021/03/14 02:50:31;;;;;;;25.83;13.50;;;;;;;;;;6238235;28;20288;-72
2021/03/14 02:53:32;;;;;;;22.48;12.35;;;;;;;;;;6232321;28;20158;-71
2021/03/14 02:56:33;;;;;;;27.92;13.80;;;;;;;;;;6239560;28;20076;-71
2021/03/14 02:59:35;;;;;;;22.55;13.02;;;;;;;;;;6233194;28;20136;-71
2021/03/14 03:02:37;;;;;;;21.98;13.70;;;;;;;;;;6233477;28;20140;-70
2021/03/14 03:05:39;;;;;;;22.77;14.10;;;;;;;;;;6235432;28;20041;-71
2021/03/14 03:08:40;;;;;;;27.85;13.98;;;;;;;;;;6230810;28;20148;-78
2021/03/14 03:11:41;;;;;;;23.40;13.73;;;;;;;;;;6231603;28;20603;-71
2021/03/14 03:14:44;;;;;;;26.80;14.30;;;;;;;;;;6232407;28;20069;-73
2021/03/14 03:17:45;;;;;;;24.23;14.43;;;;;;;;;;6230116;28;20037;-71
2021/03/14 03:20:46;;;;;;;25.10;13.73;;;;;;;;;;6230434;28;20160;-71
2021/03/14 03:23:48;;;;;;;25.13;13.23;;;;;;;;;;6238384;28;20181;-71
2021/03/14 03:26:50;;;;;;;25.52;13.65;;;;;;;;;;6231902;28;20055;-70
2021/03/14 03:29:52;;;;;;;23.88;14.93;;;;;;;;;;6230925;28;20473;-74
2021/03/14 03:32:53;;;;;;;24.80;14.98;;;;;;;;;;6233959;28;20045;-71
2021/03/14 03:35:55;;;;;;;26.33;14.80;;;;;;;;;;6231238;28;20085;-73
2021/03/14 03:38:56;;;;;;;30.45;15.00;;;;;;;;;;6233374;28;20139;-72
2021/03/14 03:42:00;;;;;;;31.92;16.90;;;;;;;;;;6233810;28;20048;-70
2021/03/14 03:45:06;;;;;;;23.95;16.13;;;;;;;;;;6231417;28;20044;-70
2021/03/14 03:48:12;;;;;;;27.48;16.10;;;;;;;;;;6229722;28;20122;-71
2021/03/14 03:51:15;;;;;;;27.88;17.38;;;;;;;;;;6231033;28;20076;-69
2021/03/14 03:54:17;;;;;;;26.43;17.10;;;;;;;;;;6227343;28;20052;-75
2021/03/14 03:57:20;;;;;;;32.45;17.30;;;;;;;;;;6226508;28;20072;-71
2021/03/14 04:00:23;;;;;;;27.20;16.52;;;;;;;;;;6232011;28;20045;-71
2021/03/14 04:03:24;;;;;;;33.10;18.15;;;;;;;;;;6229293;28;20124;-70
2021/03/14 04:06:26;;;;;;;30.45;18.20;;;;;;;;;;6225447;28;20064;-70
2021/03/14 04:09:27;;;;;;;33.75;18.80;;;;;;;;;;6226012;28;20057;-69
2021/03/14 04:12:28;;;;;;;27.55;18.55;;;;;;;;;;6231727;28;20472;-71
2021/03/14 04:15:32;;;;;;;37.33;21.52;;;;;;;;;;6219754;28;20184;-73
2021/03/14 04:18:33;;;;;;;34.15;19.33;;;;;;;;;;6221788;28;20079;-68
2021/03/14 04:21:35;;;;;;;33.83;19.60;;;;;;;;;;6233274;28;20606;-68
2021/03/14 04:24:37;;;;;;;34.55;20.05;;;;;;;;;;6225642;28;20152;-70
2021/03/14 04:27:38;;;;;;;35.25;19.90;;;;;;;;;;6230479;28;20070;-71
2021/03/14 04:30:40;;;;;;;31.15;18.33;;;;;;;;;;6231163;28;20137;-68
2021/03/14 04:33:43;;;;;;;36.58;19.05;;;;;;;;;;6229572;28;20136;-70
2021/03/14 04:36:45;;;;;;;33.38;18.13;;;;;;;;;;6237102;28;20128;-67
2021/03/14 04:39:47;;;;;;;36.58;19.42;;;;;;;;;;6233789;28;20388;-71
2021/03/14 04:42:50;;;;;;;31.52;18.77;;;;;;;;;;6230524;28;20128;-73
2021/03/14 04:45:52;;;;;;;27.65;17.00;;;;;;;;;;6236656;28;20083;-71
2021/03/14 04:48:55;;;;;;;33.08;18.10;;;;;;;;;;6235078;28;20045;-70
2021/03/14 04:51:56;;;;;;;33.13;17.33;;;;;;;;;;6232195;28;20096;-73
2021/03/14 04:54:58;;;;;;;26.40;15.68;;;;;;;;;;6226684;28;20563;-71
2021/03/14 04:58:00;;;;;;;31.88;17.58;;;;;;;;;;6226868;28;20046;-70
2021/03/14 05:01:02;;;;;;;32.60;18.63;;;;;;;;;;6226472;28;20052;-72
2021/03/14 05:04:04;;;;;;;31.17;20.27;;;;;;;;;;6229786;28;20136;-69
2021/03/14 05:07:06;;;;;;;33.75;21.67;;;;;;;;;;6228559;28;20076;-68
2021/03/14 05:10:10;;;;;;;32.85;21.30;;;;;;;;;;6236233;28;20144;-69
2021/03/14 05:13:11;;;;;;;;;;;;;;;;;;6223664;28;20136;-70
2021/03/14 05:16:14;;;;;;;41.30;19.92;;;;;;;;;;6224337;28;19936;-70
2021/03/14 05:19:15;;;;;;;33.08;20.05;;;;;;;;;;6226545;28;20475;-69
2021/03/14 05:22:19;;;;;;;30.73;19.60;;;;;;;;;;6227003;28;20045;-74
2021/03/14 05:25:20;;;;;;;29.67;19.40;;;;;;;;;;6224672;28;20737;-69
2021/03/14 05:28:21;;;;;;;28.42;17.90;;;;;;;;;;6226546;28;20137;-68
2021/03/14 05:31:31;;;;;;;26.80;17.65;;;;;;;;;;6220712;28;20137;-68
2021/03/14 05:34:32;;;;;;;27.38;17.95;;;;;;;;;;6223313;28;20168;-72
2021/03/14 05:37:33;;;;;;;24.27;16.50;;;;;;;;;;6223601;28;20484;-69
2021/03/14 05:40:34;;;;;;;22.30;14.73;;;;;;;;;;6221223;28;20526;-73
2021/03/14 05:43:36;;;;;;;24.88;15.88;;;;;;;;;;6223969;28;20061;-69
2021/03/14 05:46:39;;;;;;;23.90;15.02;;;;;;;;;;6226050;28;20054;-69
2021/03/14 05:49:40;;;;;;;23.30;13.43;;;;;;;;;;6225660;28;20046;-71
2021/03/14 05:52:42;;;;;;;19.45;12.00;;;;;;;;;;6224997;28;20065;-70
2021/03/14 05:55:43;;;;;;;17.88;11.93;;;;;;;;;;6226164;28;20358;-74
2021/03/14 05:58:45;;;;;;;18.02;11.00;;;;;;;;;;6237717;28;20068;-69
2021/03/14 06:01:48;;;;;;;10.82;7.13;;;;;;;;;;6231230;28;20049;-73
2021/03/14 06:04:53;;;;;;;9.00;5.20;;;;;;;;;;6228361;28;20065;-72
2021/03/14 06:07:54;;;;;;;7.05;4.25;;;;;;;;;;6223097;28;20137;-73
2021/03/14 06:10:55;;;;;;;9.27;4.45;;;;;;;;;;6232906;28;20077;-70
2021/03/14 06:13:57;;;;;;;6.78;3.22;;;;;;;;;;6227474;28;20114;-69
2021/03/14 06:16:59;;;;;;;10.50;4.15;;;;;;;;;;6234242;28;20049;-74
2021/03/14 06:20:01;;;;;;;10.27;3.03;;;;;;;;;;6230430;28;20099;-69
2021/03/14 06:23:06;;;;;;;4.68;2.40;;;;;;;;;;6223757;28;20053;-70
2021/03/14 06:26:12;;;;;;;5.03;2.50;;;;;;;;;;6222015;28;20439;-69
2021/03/14 06:29:26;;;;;;;3.95;2.55;;;;;;;;;;6228241;28;20046;-69
2021/03/14 06:32:29;;;;;;;6.82;2.65;;;;;;;;;;6230315;28;20165;-70
2021/03/14 06:35:41;;;;;;;2.97;1.90;;;;;;;;;;6231679;28;20192;-68
2021/03/14 06:38:42;;;;;;;3.13;1.83;;;;;;;;;;6232351;28;20100;-70
2021/03/14 06:41:43;;;;;;;4.15;2.40;;;;;;;;;;6235047;28;20063;-69
2021/03/14 06:44:44;;;;;;;5.80;2.42;;;;;;;;;;6225832;28;20140;-75
2021/03/14 06:47:48;;;;;;;3.85;2.10;;;;;;;;;;6224879;28;20236;-69
2021/03/14 06:50:49;;;;;;;4.85;2.00;;;;;;;;;;6220711;28;20073;-69
2021/03/14 06:53:50;;;;;;;3.33;2.28;;;;;;;;;;6227713;28;20817;-70
2021/03/14 06:57:05;;;;;;;4.57;1.85;;;;;;;;;;6231242;28;20448;-69
2021/03/14 07:00:08;;;;;;;3.80;2.20;;;;;;;;;;6234925;28;20120;-70
2021/03/14 07:03:23;;;;;;;4.57;2.20;;;;;;;;;;6229585;28;20133;-70
2021/03/14 07:06:26;;;;;;;3.25;1.90;;;;;;;;;;6222217;28;20129;-69
2021/03/14 07:09:27;;;;;;;3.25;2.00;;;;;;;;;;6226352;28;20049;-72
2021/03/14 07:12:31;;;;;;;4.10;1.77;;;;;;;;;;6220109;28;20073;-70
2021/03/14 07:15:33;;;;;;;3.53;1.92;;;;;;;;;;6226945;28;20063;-68
2021/03/14 07:18:36;;;;;;;3.15;2.22;;;;;;;;;;6232136;28;20458;-69
2021/03/14 07:21:38;;;;;;;3.85;2.17;;;;;;;;;;6222563;28;20045;-70
2021/03/14 07:24:40;;;;;;;3.95;2.17;;;;;;;;;;6222843;28;20140;-70
2021/03/14 07:27:41;;;;;;;3.65;2.05;;;;;;;;;;6223199;28;20076;-72
2021/03/14 07:30:43;;;;;;;4.25;2.40;;;;;;;;;;6226180;28;20129;-70
2021/03/14 07:33:45;;;;;;;3.42;2.28;;;;;;;;;;6221308;28;20132;-70
2021/03/14 07:36:47;;;;;;;3.33;2.17;;;;;;;;;;6226498;28;20674;-72
2021/03/14 07:39:48;;;;;;;4.97;2.80;;;;;;;;;;6232915;28;20136;-69
2021/03/14 07:42:49;;;;;;;3.55;2.28;;;;;;;;;;6231360;28;20132;-69
2021/03/14 07:45:50;;;;;;;3.22;2.20;;;;;;;;;;6230951;28;20049;-69
2021/03/14 07:48:53;;;;;;;6.05;2.28;;;;;;;;;;6240141;28;20141;-71
2021/03/14 07:51:56;;;;;;;4.57;2.08;;;;;;;;;;6231536;28;20132;-71
2021/03/14 07:54:59;;;;;;;5.85;3.00;;;;;;;;;;6230493;28;20140;-72
2021/03/14 07:58:00;;;;;;;3.10;1.73;;;;;;;;;;6214753;28;20073;-70
2021/03/14 08:01:22;;;;;;;3.97;2.13;;;;;;;;;;6220706;28;20169;-71
2021/03/14 08:04:31;;;;;;;2.88;1.70;;;;;;;;;;6225853;28;20131;-74
2021/03/14 08:07:46;;;;;;;4.20;1.80;;;;;;;;;;6235091;28;20164;-73
2021/03/14 08:10:47;;;;;;;2.50;1.55;;;;;;;;;;6234259;28;20080;-70
2021/03/14 08:13:49;;;;;;;4.30;1.50;;;;;;;;;;6226831;28;20128;-69
2021/03/14 08:17:14;;;;;;;3.67;1.50;;;;;;;;;;6232736;28;20083;-70
2021/03/14 08:20:35;;;;;;;2.53;1.48;;;;;;;;;;6219217;28;20038;-70
2021/03/14 08:23:42;;;;;;;2.38;1.30;;;;;;;;;;6235340;28;20073;-70
2021/03/14 08:26:43;;;;;;;3.08;1.33;;;;;;;;;;6239749;28;20091;-70
2021/03/14 08:29:44;;;;;;;2.45;1.05;;;;;;;;;;6234466;28;20132;-69
2021/03/14 08:32:45;;;;;;;4.50;2.58;;;;;;;;;;6228894;28;20045;-73
2021/03/14 08:35:48;;;;;;;5.20;2.92;;;;;;;;;;6227311;28;20137;-73
2021/03/14 08:38:52;;;;;;;4.18;2.25;;;;;;;;;;6226687;28;20176;-70
2021/03/14 08:41:55;;;;;;;6.53;0.80;;;;;;;;;;6222796;28;20054;-70
2021/03/14 08:44:56;;;;;;;1.53;0.60;;;;;;;;;;6232167;28;20085;-69
2021/03/14 08:47:58;;;;;;;4.32;1.50;;;;;;;;;;6222274;28;20460;-71
2021/03/14 08:51:00;;;;;;;4.00;1.90;;;;;;;;;;6237010;28;20526;-70
2021/03/14 08:54:01;;;;;;;6.55;1.13;;;;;;;;;;6233885;28;20049;-69
2021/03/14 08:57:04;;;;;;;3.72;0.22;;;;;;;;;;6235801;28;20069;-69
2021/03/14 09:00:06;;;;;;;2.40;0.60;;;;;;;;;;6226698;28;20136;-70
2021/03/14 09:03:11;;;;;;;3.13;0.68;;;;;;;;;;6228803;28;20493;-68
2021/03/14 09:06:24;;;;;;;;;;;;;;;;;;6204282;28;20709;-69
2021/03/14 09:09:25;;;;;;;1.70;0.20;;;;;;;;;;6228511;28;19932;-73
2021/03/14 09:12:26;;;;;;;2.85;0.40;;;;;;;;;;6221458;28;20081;-69
2021/03/14 09:15:27;;;;;;;1.98;0.20;;;;;;;;;;6228369;28;20089;-72
2021/03/14 09:18:29;;;;;;;2.50;0.40;;;;;;;;;;6226128;28;20433;-70
2021/03/14 09:21:49;;;;;;;1.30;0.32;;;;;;;;;;6223136;28;20077;-71
2021/03/14 09:24:51;;;;;;;0.40;0.20;;;;;;;;;;6226079;28;20132;-70
2021/03/14 09:27:52;;;;;;;0.22;0.17;;;;;;;;;;6233401;28;20150;-74
2021/03/14 09:30:53;;;;;;;8.40;0.40;;;;;;;;;;6232474;28;20041;-70
2021/03/14 09:33:54;;;;;;;1.95;0.25;;;;;;;;;;6225787;28;20136;-70
2021/03/14 09:36:56;;;;;;;3.45;0.30;;;;;;;;;;6227084;28;20188;-76
2021/03/14 09:40:15;;;;;;;5.25;0.77;;;;;;;;;;6228000;28;20065;-75
2021/03/14 09:43:18;;;;;;;9.52;0.68;;;;;;;;;;6242538;28;20492;-69
2021/03/14 09:46:19;;;;;;;1.42;0.43;;;;;;;;;;6226975;28;20050;-70
2021/03/14 09:49:21;;;;;;;6.35;0.43;;;;;;;;;;6242189;28;20471;-69
2021/03/14 09:52:24;;;;;;;7.53;0.40;;;;;;;;;;6226768;28;20052;-73
2021/03/14 09:55:29;;;;;;;6.63;0.30;;;;;;;;;;6234207;28;20453;-71
2021/03/14 09:58:31;;;;;;;7.07;0.30;;;;;;;;;;6245249;28;20485;-71
2021/03/14 10:01:32;;;;;;;2.25;0.50;;;;;;;;;;6229483;28;20475;-70
2021/03/14 10:04:44;;;;;;;17.23;0.95;;;;;;;;;;6227876;28;20125;-70
2021/03/14 10:07:51;;;;;;;0.43;0.17;;;;;;;;;;6236417;28;20050;-69
2021/03/14 10:10:53;;;;;;;3.20;0.20;;;;;;;;;;6228745;28;20164;-70
2021/03/14 10:13:55;;;;;;;7.60;0.68;;;;;;;;;;6233664;28;20518;-71
2021/03/14 10:16:56;;;;;;;5.38;0.73;;;;;;;;;;6243106;28;20405;-71
2021/03/14 10:19:57;;;;;;;4.18;0.20;;;;;;;;;;6227989;28;20137;-77
2021/03/14 10:23:00;;;;;;;20.58;1.25;;;;;;;;;;6219456;28;20373;-71
2021/03/14 10:26:06;;;;;;;6.75;0.40;;;;;;;;;;6227098;28;20640;-70
2021/03/14 10:29:13;;;;;;;3.67;0.47;;;;;;;;;;6233898;28;20202;-70
2021/03/14 10:32:19;;;;;;;4.35;0.73;;;;;;;;;;6204874;28;20484;-70
2021/03/14 10:35:21;;;;;;;3.03;0.90;;;;;;;;;;6235636;28;20071;-70
2021/03/14 10:38:23;;;;;;;7.07;0.52;;;;;;;;;;6235954;28;20050;-72
2021/03/14 10:41:25;;;;;;;5.70;0.70;;;;;;;;;;6232946;28;20065;-71
2021/03/14 10:44:26;;;;;;;1.35;0.40;;;;;;;;;;6234304;28;20080;-73
2021/03/14 10:47:29;;;;;;;6.78;0.90;;;;;;;;;;6223846;28;20074;-71
2021/03/14 10:50:31;;;;;;;4.38;0.50;;;;;;;;;;6235650;28;20076;-73
2021/03/14 10:53:33;;;;;;;3.65;0.30;;;;;;;;;;6229725;28;20132;-71
2021/03/14 10:56:36;;;;;;;3.50;0.43;;;;;;;;;;6241943;28;20080;-78
2021/03/14 10:59:37;;;;;;;6.65;0.50;;;;;;;;;;6231089;28;20053;-70
2021/03/14 11:02:42;;;;;;;4.80;0.30;;;;;;;;;;6243573;28;20163;-72
2021/03/14 11:05:43;;;;;;;3.13;0.30;;;;;;;;;;6231384;28;20541;-74
2021/03/14 11:08:52;;;;;;;5.28;0.60;;;;;;;;;;6235639;28;20053;-72
2021/03/14 11:11:53;;;;;;;8.63;0.43;;;;;;;;;;6225136;28;20092;-79
2021/03/14 11:14:55;;;;;;;5.47;1.05;;;;;;;;;;6234094;28;20118;-79
2021/03/14 11:17:57;;;;;;;1.17;0.20;;;;;;;;;;6230303;28;20171;-77
2021/03/14 11:20:58;;;;;;;1.90;0.30;;;;;;;;;;6226452;28;20517;-72
2021/03/14 11:24:00;;;;;;;10.80;0.80;;;;;;;;;;6219369;28;20103;-75
2021/03/14 11:27:01;;;;;;;3.97;0.20;;;;;;;;;;6222991;28;20096;-73
2021/03/14 11:30:03;;;;;;;4.43;0.30;;;;;;;;;;6224890;28;20493;-73
2021/03/14 11:33:06;;;;;;;11.50;1.23;;;;;;;;;;6225542;28;20132;-77
2021/03/14 11:36:07;;;;;;;28.35;2.38;;;;;;;;;;6224997;28;20129;-76
2021/03/14 11:39:09;;;;;;;3.72;0.50;;;;;;;;;;6223980;28;20072;-70
2021/03/14 11:42:11;;;;;;;3.15;0.77;;;;;;;;;;6230066;28;20548;-71
2021/03/14 11:45:12;;;;;;;12.63;0.90;;;;;;;;;;6224154;28;20049;-74
2021/03/14 11:48:14;;;;;;;7.30;0.50;;;;;;;;;;6225582;28;20069;-72
2021/03/14 11:51:15;;;;;;;2.38;0.32;;;;;;;;;;6223278;28;20078;-73
2021/03/14 11:54:17;;;;;;;1.50;0.32;;;;;;;;;;6226706;28;20129;-73
2021/03/14 11:57:18;;;;;;;8.97;0.87;;;;;;;;;;6221166;28;20047;-71
2021/03/14 12:00:21;;;;;;;8.68;0.90;;;;;;;;;;6225748;28;20054;-71
2021/03/14 12:03:22;;;;;;;6.35;1.00;;;;;;;;;;6230717;28;20077;-79
2021/03/14 12:06:23;;;;;;;10.30;0.95;;;;;;;;;;6225225;28;20073;-74
2021/03/14 12:09:26;;;;;;;17.10;0.90;;;;;;;;;;6226323;28;20050;-73
2021/03/14 12:12:27;;;;;;;3.55;0.80;;;;;;;;;;6221290;28;20052;-74
2021/03/14 12:15:28;;;;;;;4.70;0.50;;;;;;;;;;6223528;28;20437;-73
2021/03/14 12:18:30;;;;;;;1.85;0.40;;;;;;;;;;6231260;28;20084;-72
2021/03/14 12:21:31;;;;;;;4.95;0.40;;;;;;;;;;6225001;28;20054;-71
2021/03/14 12:24:33;;;;;;;9.20;0.85;;;;;;;;;;6219713;28;20245;-73
2021/03/14 12:27:34;;;;;;;5.57;0.50;;;;;;;;;;6228773;28;20209;-75
2021/03/14 12:30:36;;;;;;;5.63;0.30;;;;;;;;;;6226028;28;20057;-72
2021/03/14 12:33:37;;;;;;;6.97;0.60;;;;;;;;;;6237111;28;20050;-74
2021/03/14 12:36:38;;;;;;;2.05;0.30;;;;;;;;;;6231148;28;20050;-75
2021/03/14 12:39:40;;;;;;;2.90;0.32;;;;;;;;;;6223920;28;20085;-74
2021/03/14 12:42:41;;;;;;;2.03;0.40;;;;;;;;;;6229372;28;20528;-72
2021/03/14 12:45:43;;;;;;;3.50;0.50;;;;;;;;;;6230560;28;20088;-72
2021/03/14 12:48:44;;;;;;;5.55;0.50;;;;;;;;;;6226015;28;20348;-72
2021/03/14 12:51:45;;;;;;;5.18;0.40;;;;;;;;;;6224411;28;20440;-71
2021/03/14 12:54:47;;;;;;;4.32;1.02;;;;;;;;;;6222542;28;20049;-71
2021/03/14 12:57:48;;;;;;;1.98;0.30;;;;;;;;;;6227413;28;20454;-71
2021/03/14 13:00:50;;;;;;;1.83;0.30;;;;;;;;;;6224316;28;20235;-70
2021/03/14 13:03:52;;;;;;;13.98;0.80;;;;;;;;;;6226473;28;20132;-71
2021/03/14 13:06:53;;;;;;;1.20;0.63;;;;;;;;;;6234526;28;20046;-71
2021/03/14 13:09:54;;;;;;;7.50;1.77;;;;;;;;;;6227472;28;20090;-71
2021/03/14 13:12:56;;;;;;;2.03;0.93;;;;;;;;;;6229104;28;20511;-71
2021/03/14 13:15:57;;;;;;;3.05;0.30;;;;;;;;;;6228628;28;20771;-71
2021/03/14 13:18:58;;;;;;;1.38;0.28;;;;;;;;;;6228990;28;20070;-71
2021/03/14 13:21:59;;;;;;;2.70;0.40;;;;;;;;;;6227025;28;20589;-71
2021/03/14 13:25:01;;;;;;;5.75;0.50;;;;;;;;;;6211056;28;20128;-71
2021/03/14 13:28:03;;;;;;;2.30;0.45;;;;;;;;;;6231349;28;20394;-71
2021/03/14 13:31:04;;;;;;;1.40;0.20;;;;;;;;;;6227787;28;20069;-71
2021/03/14 13:34:05;;;;;;;4.43;0.40;;;;;;;;;;6234212;28;20080;-71
2021/03/14 13:37:08;;;;;;;2.08;0.40;;;;;;;;;;6231099;28;20076;-72
2021/03/14 13:40:11;;;;;;;7.53;0.65;;;;;;;;;;6227900;28;20041;-72
2021/03/14 13:43:12;;;;;;;;;;;;;;;;;;6226640;28;20133;-72
2021/03/14 13:46:13;;;;;;;0.25;0.10;;;;;;;;;;6227403;28;19972;-72
2021/03/14 13:49:14;;;;;;;18.10;0.98;;;;;;;;;;6229907;28;20115;-72
2021/03/14 13:52:15;;;;;;;4.38;0.30;;;;;;;;;;6229423;28;20057;-72
2021/03/14 13:55:17;;;;;;;1.25;0.28;;;;;;;;;;6210592;28;20491;-71
2021/03/14 13:58:19;;;;;;;0.82;0.30;;;;;;;;;;6228627;28;20061;-78
2021/03/14 14:01:20;;;;;;;0.40;0.20;;;;;;;;;;6231118;28;20084;-70
2021/03/14 14:04:22;;;;;;;2.63;0.40;;;;;;;;;;6229611;28;20044;-73
2021/03/14 14:07:24;;;;;;;12.50;0.73;;;;;;;;;;6227453;28;20596;-73
2021/03/14 14:10:26;;;;;;;3.75;0.40;;;;;;;;;;6230823;28;20143;-73
2021/03/14 14:13:27;;;;;;;57.50;2.60;;;;;;;;;;6229152;28;20061;-74
2021/03/14 14:16:31;;;;;;;30.55;2.75;;;;;;;;;;6225368;28;20048;-73
2021/03/14 14:19:31;;;;;;;;;;;;;;;;;;6232504;28;20056;-77
2021/03/14 14:22:33;;;;;;;5.15;0.30;;;;;;;;;;6233812;28;20364;-75
2021/03/14 14:25:35;;;;;;;63.22;5.55;;;;;;;;;;6223604;28;20113;-71
2021/03/14 14:28:36;;;;;;;44.08;3.78;;;;;;;;;;6217477;28;20503;-73
2021/03/14 14:31:37;;;;;;;23.27;1.75;;;;;;;;;;6229408;28;21531;-73
2021/03/14 14:34:38;;;;;;;10.23;0.63;;;;;;;;;;6230297;28;20057;-74
2021/03/14 14:37:39;;;;;;;8.02;0.55;;;;;;;;;;6228085;28;20089;-71
2021/03/14 14:40:41;;;;;;;30.42;1.67;;;;;;;;;;6231204;28;20145;-74
2021/03/14 14:43:42;;;;;;;21.30;1.20;;;;;;;;;;6232188;28;21153;-73
2021/03/14 14:46:43;;;;;;;6.13;0.90;;;;;;;;;;6216667;28;20154;-72
2021/03/14 14:49:45;;;;;;;8.77;1.08;;;;;;;;;;6217182;28;20124;-71
2021/03/14 14:52:46;;;;;;;12.60;1.20;;;;;;;;;;6224376;28;20126;-72
2021/03/14 14:55:48;;;;;;;30.65;2.08;;;;;;;;;;6232675;28;20069;-74
2021/03/14 14:58:49;;;;;;;273.42;20.23;;;;;;;;;;6233816;28;20128;-72
2021/03/14 15:01:50;;;;;;;45.50;2.40;;;;;;;;;;6239583;28;20500;-76
2021/03/14 15:04:51;;;;;;;20.20;1.88;;;;;;;;;;6234563;28;20144;-73
2021/03/14 15:07:53;;;;;;;25.02;1.83;;;;;;;;;;6221199;28;20130;-73
2021/03/14 15:10:55;;;;;;;12.10;0.85;;;;;;;;;;6222937;28;20086;-72
2021/03/14 15:13:56;;;;;;;21.05;1.55;;;;;;;;;;6233445;28;20072;-72
2021/03/14 15:16:57;;;;;;;5.18;0.75;;;;;;;;;;6225417;28;20119;-74
2021/03/14 15:19:58;;;;;;;24.60;1.70;;;;;;;;;;6227952;28;20081;-76
2021/03/14 15:22:59;;;;;;;51.08;3.88;;;;;;;;;;6230052;28;20122;-73
2021/03/14 15:26:01;;;;;;;48.78;2.42;;;;;;;;;;6222885;28;20116;-74
2021/03/14 15:29:02;;;;;;;11.07;0.50;;;;;;;;;;6222904;28;20050;-72
2021/03/14 15:32:04;;;;;;;12.43;0.88;;;;;;;;;;6232415;28;20076;-73
2021/03/14 15:35:06;;;;;;;8.48;0.50;;;;;;;;;;6223018;28;20099;-74
2021/03/14 15:38:07;;;;;;;15.93;0.88;;;;;;;;;;6230353;28;20041;-70
2021/03/14 15:41:09;;;;;;;24.83;1.40;;;;;;;;;;6236906;28;20046;-70
2021/03/14 15:44:11;;;;;;;12.83;1.07;;;;;;;;;;6237257;28;20136;-70
2021/03/14 15:47:12;;;;;;;18.38;1.45;;;;;;;;;;6239262;28;20341;-70
2021/03/14 15:50:14;;;;;;;26.85;1.95;;;;;;;;;;6234664;28;20053;-72
2021/03/14 15:53:15;;;;;;;18.83;1.83;;;;;;;;;;6232321;28;20159;-74
2021/03/14 15:56:17;;;;;;;40.22;2.78;;;;;;;;;;6227081;28;20086;-69
2021/03/14 15:59:19;;;;;;;13.07;1.02;;;;;;;;;;6230959;28;20060;-71
2021/03/14 16:02:20;;;;;;;4.78;0.82;;;;;;;;;;6231862;28;20129;-69
2021/03/14 16:05:22;;;;;;;27.98;2.05;;;;;;;;;;6237837;28;20042;-71
2021/03/14 16:08:23;;;;;;;27.25;1.83;;;;;;;;;;6232273;28;20381;-69
2021/03/14 16:11:25;;;;;;;29.92;2.05;;;;;;;;;;6221937;28;20080;-70
2021/03/14 16:14:26;;;;;;;29.75;1.30;;;;;;;;;;6241950;28;20053;-80
2021/03/14 16:17:27;;;;;;;35.50;2.83;;;;;;;;;;6230693;28;20081;-70
2021/03/14 16:20:28;;;;;;;32.00;1.25;;;;;;;;;;6226835;28;20453;-73
2021/03/14 16:23:29;;;;;;;68.50;5.95;;;;;;;;;;6221871;28;20132;-69
2021/03/14 16:26:31;;;;;;;21.65;1.83;;;;;;;;;;6224701;28;20057;-72
2021/03/14 16:29:32;;;;;;;22.08;1.20;;;;;;;;;;6224691;28;20065;-72
2021/03/14 16:32:33;;;;;;;11.20;0.90;;;;;;;;;;6237675;28;20053;-70
2021/03/14 16:35:35;;;;;;;16.88;1.10;;;;;;;;;;6224857;28;20073;-70
2021/03/14 16:38:36;;;;;;;15.10;0.93;;;;;;;;;;6223052;28;20180;-71
2021/03/14 16:41:38;;;;;;;3.88;0.50;;;;;;;;;;6227149;28;20050;-72
2021/03/14 16:44:39;;;;;;;8.82;0.70;;;;;;;;;;6230932;28;20088;-75
2021/03/14 16:47:40;;;;;;;28.38;1.33;;;;;;;;;;6230291;28;20049;-71
2021/03/14 16:50:41;;;;;;;34.70;1.70;;;;;;;;;;6229451;28;20080;-73
2021/03/14 16:53:42;;;;;;;2.45;0.65;;;;;;;;;;6232639;28;20081;-77
2021/03/14 16:56:44;;;;;;;3.75;0.60;;;;;;;;;;6232707;28;20073;-69
2021/03/14 16:59:45;;;;;;;6.80;0.70;;;;;;;;;;6241923;28;20248;-69
2021/03/14 17:02:48;;;;;;;21.80;2.15;;;;;;;;;;6236692;28;20204;-71
2021/03/14 17:05:49;;;;;;;25.33;1.30;;;;;;;;;;6232523;28;20531;-72
2021/03/14 17:08:50;;;;;;;7.88;0.80;;;;;;;;;;6226595;28;20104;-68
2021/03/14 17:11:52;;;;;;;10.52;0.70;;;;;;;;;;6227533;28;20056;-74
2021/03/14 17:14:53;;;;;;;0.95;0.20;;;;;;;;;;6237290;28;20076;-74
2021/03/14 17:17:54;;;;;;;13.55;1.10;;;;;;;;;;6237251;28;20116;-72
2021/03/14 17:20:56;;;;;;;34.05;1.63;;;;;;;;;;6225941;28;20096;-69
2021/03/14 17:23:57;;;;;;;13.55;1.10;;;;;;;;;;6228290;28;20100;-69
2021/03/14 17:26:59;;;;;;;23.00;0.95;;;;;;;;;;6230222;28;20163;-69
2021/03/14 17:30:00;;;;;;;7.25;0.60;;;;;;;;;;6227579;28;20060;-71
2021/03/14 17:33:01;;;;;;;3.38;0.70;;;;;;;;;;6228347;28;20080;-76
2021/03/14 17:36:02;;;;;;;11.77;1.13;;;;;;;;;;6233264;28;20041;-73
2021/03/14 17:39:04;;;;;;;7.35;0.82;;;;;;;;;;6230627;28;20078;-70
2021/03/14 17:42:06;;;;;;;17.95;1.58;;;;;;;;;;6235095;28;20164;-73
2021/03/14 17:45:08;;;;;;;10.45;1.00;;;;;;;;;;6232126;28;20077;-69
2021/03/14 17:48:10;;;;;;;15.30;1.17;;;;;;;;;;6234649;28;20611;-70
2021/03/14 17:51:11;;;;;;;11.60;0.80;;;;;;;;;;6236402;28;20117;-70
2021/03/14 17:54:12;;;;;;;8.02;1.00;;;;;;;;;;6236130;28;20554;-68
2021/03/14 17:57:14;;;;;;;13.85;1.20;;;;;;;;;;6236177;28;20049;-68
2021/03/14 18:00:17;;;;;;;12.10;1.30;;;;;;;;;;6230937;28;20080;-68